Flight Track Log - Related Links

Times and Time Zones

All times are in EDT time to prevent confusion due to time zone crossing. See the N2QD flight status page for this flight to view local times or setup timezone preferences in your user account.

Time Position Orientation Groundspeed Altitude Reporting Facility
EDT Latitude Longitude Course Direction KTS MPH feet Rate Location/Type
Fri 01:21:57 PM 36.8500 -121.8000 180° South 117 135 2,200  Level Northern Cal TRACON
Fri 01:22:52 PM 36.8167 -121.8000 141° Southeast 120 138 2,900 783 Climbing Northern Cal TRACON
Fri 01:23:52 PM 36.8000 -121.7833 141° Southeast 123 142 3,700 843 Climbing Northern Cal TRACON
Fri 01:24:53 PM 36.7667 -121.7500 158° South 120 138 4,600 843 Climbing Northern Cal TRACON
Fri 01:25:53 PM 36.7333 -121.7333 122° Southeast 124 143 5,400 850 Climbing Northern Cal TRACON
Fri 01:26:53 PM 36.7167 -121.7000 141° Southeast 132 152 6,300 843 Climbing Northern Cal TRACON
Fri 01:27:54 PM 36.6833 -121.6667 141° Southeast 132 152 7,100 835 Climbing Northern Cal TRACON
Fri 01:28:48 PM 36.6667 -121.6500 113° Southeast 132 152 7,900 842 Climbing Northern Cal TRACON
Fri 01:29:48 PM 36.6500 -121.6000 122° Southeast 132 152 8,700 600 Climbing Northern Cal TRACON
Fri 01:30:48 PM 36.6333 -121.5667 141° Southeast 149 171 9,100 198 Climbing Northern Cal TRACON
Fri 01:31:49 PM 36.5833 -121.5167 141° Southeast 181 208 9,100  Level Northern Cal TRACON
Fri 01:32:49 PM 36.5500 -121.4833 127° Southeast 180 207 9,100  Level Northern Cal TRACON
Fri 01:33:25 PM 36.5311 -121.4517 138° Southeast 183 211 9,100  Level Oakland Center
Fri 01:34:25 PM 36.4917 -121.4075 138° Southeast 183 211 9,100  Level Oakland Center
Fri 01:35:25 PM 36.4542 -121.3658 140° Southeast 188 216 9,100  Level Oakland Center
Fri 01:36:25 PM 36.4147 -121.3244 138° Southeast 183 211 9,100  Level Oakland Center
Fri 01:37:25 PM 36.3775 -121.2831 140° Southeast 188 216 9,100  Level Oakland Center
Fri 01:38:24 PM 36.3358 -121.2392 140° Southeast 188 216 9,100 -50 Level Oakland Center
Fri 01:39:25 PM 36.2961 -121.1978 143° Southeast 188 216 9,000  Descending Oakland Center
Fri 01:40:25 PM 36.2544 -121.1589 140° Southeast 188 216 9,100 50 Climbing Oakland Center
Fri 01:41:25 PM 36.2150 -121.1178 138° Southeast 188 216 9,100  Level Oakland Center
Fri 01:42:25 PM 36.1753 -121.0739 138° Southeast 188 216 9,100  Level Oakland Center
Fri 01:43:25 PM 36.1358 -121.0300 140° Southeast 188 216 9,100  Level Oakland Center
Fri 01:44:25 PM 36.0961 -120.9889 140° Southeast 188 216 9,100  Level Oakland Center
Fri 01:45:25 PM 36.0567 -120.9478 144° Southeast 188 216 9,100  Level Oakland Center
Fri 01:46:25 PM 36.0147 -120.9094 140° Southeast 188 216 9,100  Level Oakland Center
Fri 01:47:25 PM 35.9750 -120.8683 142° Southeast 188 216 9,100  Level Oakland Center
Fri 01:48:25 PM 35.9333 -120.8275 145° Southeast 188 216 9,100  Level Oakland Center
Fri 01:49:25 PM 35.8917 -120.7917 143° Southeast 188 216 9,100  Level Oakland Center
Fri 01:50:25 PM 35.8497 -120.7533 146° Southeast 188 216 9,100  Level Oakland Center
Fri 01:52:16 PM 35.7717 -120.6881 150° Southeast 187 215 9,100  Level Los Angeles Center
Fri 01:53:16 PM 35.7289 -120.6575 156° South 187 215 9,100  Level Los Angeles Center
Fri 01:54:16 PM 35.6819 -120.6317 165° South 182 209 9,100  Level Los Angeles Center
Fri 01:55:16 PM 35.6344 -120.6164 158° South 177 204 9,100  Level Los Angeles Center
Fri 01:56:16 PM 35.5875 -120.5933 158° South 177 204 9,100  Level Los Angeles Center
Fri 01:57:16 PM 35.5422 -120.5706 160° South 177 204 9,100  Level Los Angeles Center
Fri 01:58:16 PM 35.4950 -120.5500 158° South 182 209 9,100  Level Los Angeles Center
Fri 01:59:16 PM 35.4481 -120.5269 168° South 182 209 9,100  Level Los Angeles Center
Fri 02:00:16 PM 35.4003 -120.5142 183° South 182 209 9,100  Level Los Angeles Center
Fri 02:01:16 PM 35.3564 -120.5169 185° South 177 204 9,100  Level Los Angeles Center
Fri 02:02:16 PM 35.3103 -120.5222 185° South 172 198 9,100 -200 Level Los Angeles Center
Fri 02:03:16 PM 35.2622 -120.5272 183° South 177 204 8,700 -425 Descending Los Angeles Center
Fri 02:04:09 PM 35.2183 -120.5300 184° South 181 208 8,300 -421 Descending Los Angeles Center
Fri 02:05:10 PM 35.1658 -120.5347 188° South 181 208 7,900 -362 Descending Los Angeles Center
Fri 02:06:05 PM 35.1197 -120.5425 194° South 181 208 7,600 -381 Descending Los Angeles Center
Fri 02:07:16 PM 35.0628 -120.5597 196° South 182 209 7,100 -275 Descending Los Angeles Center
Fri 02:08:16 PM 35.0183 -120.5750 184° South 176 203 7,000 -54 Descending Los Angeles Center
Fri 02:09:07 PM 34.9786 -120.5781 144° Southeast 177 204 7,000  Level Los Angeles Center
Fri 02:10:01 PM 34.9422 -120.5456 143° Southeast 184 212 7,000  Level Los Angeles Center
Fri 02:11:02 PM 34.9019 -120.5081 136° Southeast 183 211 7,000  Level Los Angeles Center
Fri 02:12:03 PM 34.8658 -120.4656 138° Southeast 186 214 7,000 -93 Level Los Angeles Center
Fri 02:14:16 PM 34.7794 -120.3725 156° South 185 213 6,700 -165 Descending Los Angeles Center
Fri 02:15:05 PM 34.7383 -120.3503 159° South 193 222 6,500 -310 Descending Los Angeles Center
Fri 02:16:12 PM 34.6831 -120.3247 156° South 191 220 6,100 -469 Descending Los Angeles Center
Fri 02:17:13 PM 34.6358 -120.2994 154° Southeast 189 217 5,500 -435 Descending Los Angeles Center
Fri 02:18:16 PM 34.5950 -120.2747 159° South 190 219 5,200 -390 Descending Los Angeles Center
Fri 02:19:16 PM 34.5417 -120.2494 155° Southeast 190 219 4,700 -550 Descending Los Angeles Center
Fri 02:20:16 PM 34.4925 -120.2217 141° Southeast 190 219 4,100 -500 Descending Los Angeles Center
Fri 02:21:16 PM 34.4519 -120.1819 118° Southeast 190 219 3,700 -350 Descending Los Angeles Center
Fri 02:22:16 PM 34.4306 -120.1331 111° Southeast 176 203 3,400 -190 Descending Los Angeles Center
Fri 02:23:22 PM 34.4117 -120.0742 102° East 153 176 3,300 45 Descending Los Angeles Center
Fri 02:24:29 PM 34.4031 -120.0236 103° East 138 159 3,500 134 Climbing Los Angeles Center
Fri 02:25:36 PM 34.3942 -119.9753 100° East 136 157 3,600 52 Climbing Los Angeles Center
Fri 02:26:24 PM 34.3889 -119.9397 96° East 135 155 3,600 -606 Level Los Angeles Center
Fri 02:27:25 PM 34.3842 -119.8892 91° East 142 163 2,500 -1,082 Descending Los Angeles Center
Fri 02:28:26 PM 34.3836 -119.8364 38° Northeast 152 175 1,400 -843 Descending Los Angeles Center
Fri 02:29:26 PM 34.4094 -119.8122 305° West 122 140 800 -600 Descending Los Angeles Center
Fri 02:36:32 PM 34.6071 -120.1591 125° Southeast  Level Estimated
Fri 02:37:32 PM 34.4167 -119.8333 125° Southeast  Level FlightAware Approximate

Login

Don't have an account? Register now (free) for customized features, flight alerts, and more!